Time;durP1;ratioP1;P1;durP2;ratioP2;P2;SDS_P1;SDS_P2;PMS_P1;PMS_P2;Temp;Humidity;BMP_temperature;BMP_pressure;BME280_temperature;BME280_humidity;BME280_pressure;Samples;Min_cycle;Max_cycle;Signal;HPM_P1;HPM_P2
2024/01/18 00:14:09;;;;;;;2.53;2.33;;;;;;;1.63;84.45;98332.78;4861894;29;20056;-90
2024/01/18 00:16:49;;;;;;;;;;;;;;;1.61;85.33;98342.19;4859169;29;20056;-89
2024/01/18 00:19:56;;;;;;;1.25;1.17;;;;;;;1.63;85.18;98339.97;4850245;29;20278;-90
2024/01/18 00:33:10;;;;;;;4.30;2.60;;;;;;;1.78;84.87;98370.94;5628148;23;20060;-90
2024/01/18 00:36:17;;;;;;;6.07;3.72;;;;;;;1.87;84.09;98373.34;4943490;28;20130;-90
2024/01/18 00:39:11;;;;;;;;;;;;;;;;;;;;;
2024/01/18 00:42:24;;;;;;;1.20;1.17;;;;;;;1.80;84.49;98382.72;4930203;29;20118;-90
2024/01/18 00:44:56;;;;;;;1.75;1.65;;;;;;;1.74;84.40;98386.78;4957762;28;20521;-90
2024/01/18 00:47:46;;;;;;;2.03;1.67;;;;;;;1.75;84.80;98387.53;4981579;28;20045;-90
2024/01/18 00:50:27;;;;;;;2.97;2.78;;;;;;;1.78;84.92;98382.28;4970044;28;21813;-90
2024/01/18 00:53:13;;;;;;;3.15;2.40;;;;;;;1.79;84.83;98391.03;4977843;28;20042;-90
2024/01/18 00:55:45;;;;;;;2.78;1.80;;;;;;;1.80;85.42;98403.19;4990645;28;20080;-90
2024/01/18 00:58:28;;;;;;;1.83;1.55;;;;;;;1.78;85.11;98408.06;4981448;28;20383;-90
2024/01/18 01:00:58;;;;;;;3.47;1.98;;;;;;;1.77;85.47;98409.19;4987462;28;20567;-91
2024/01/18 01:03:54;;;;;;;3.55;2.05;;;;;;;1.73;85.96;98413.66;4974701;28;20045;-91
2024/01/18 01:06:26;;;;;;;2.35;1.80;;;;;;;1.78;85.59;98416.78;4976920;28;20033;-90
2024/01/18 01:09:06;;;;;;;1.92;1.65;;;;;;;1.73;85.58;98424.25;4994441;28;20034;-90
2024/01/18 01:12:04;;;;;;;1.52;1.42;;;;;;;1.70;85.57;98430.28;4976808;28;20038;-91
2024/01/18 01:14:51;;;;;;;1.83;1.73;;;;;;;1.69;85.61;98434.81;4990953;28;20042;-90
2024/01/18 01:17:25;;;;;;;1.40;1.30;;;;;;;1.67;85.55;98429.09;4993901;28;20037;-90
2024/01/18 01:20:12;;;;;;;2.38;2.10;;;;;;;1.70;85.27;98435.59;4970904;28;20042;-90
2024/01/18 01:22:49;;;;;;;2.55;2.13;;;;;;;1.64;85.34;98429.03;4972717;28;20045;-90
2024/01/18 01:25:22;;;;;;;3.50;2.35;;;;;;;1.65;85.66;98430.53;4985589;28;20525;-91
2024/01/18 01:28:15;;;;;;;2.08;1.85;;;;;;;1.63;85.48;98440.72;4999077;28;20045;-91
2024/01/18 01:34:45;;;;;;;1.23;1.17;;;;;;;1.56;86.11;98452.00;5010204;28;20050;-91
2024/01/18 01:37:24;;;;;;;2.53;2.00;;;;;;;1.61;85.97;98448.28;4978410;28;20034;-90
2024/01/18 01:40:09;;;;;;;2.30;2.05;;;;;;;1.54;85.61;98451.56;5009679;28;20430;-91
2024/01/18 01:42:49;;;;;;;3.05;2.35;;;;;;;1.55;85.75;98458.41;4992610;28;20054;-91
2024/01/18 01:45:19;;;;;;;5.40;2.25;;;;;;;1.57;85.96;98458.03;4991651;28;20030;-90
2024/01/18 01:48:15;;;;;;;1.40;1.35;;;;;;;1.57;86.11;98476.59;5005879;28;20525;-91
2024/01/18 01:51:04;;;;;;;4.68;2.63;;;;;;;1.57;85.83;98480.03;5003571;28;20050;-91
2024/01/18 01:58:23;;;;;;;3.10;2.80;;;;;;;1.62;85.82;98484.28;4997081;28;20033;-90
2024/01/18 03:06:02;;;;;;;5.57;2.65;;;;;;;1.20;85.12;98526.56;5436015;22;20111;-89
2024/01/18 03:08:40;;;;;;;4.20;2.97;;;;;;;1.04;84.94;98531.16;4983045;28;20540;-89
2024/01/18 09:34:53;;;;;;;2.40;2.22;;;;;;;1.70;85.57;98887.22;5564804;23;20049;-78
2024/01/18 09:37:19;;;;;;;2.63;2.13;;;;;;;1.74;86.02;98893.38;4985125;28;20490;-78
2024/01/18 09:39:45;;;;;;;5.43;2.92;;;;;;;1.78;85.69;98894.25;4987719;28;20045;-78
2024/01/18 09:42:16;;;;;;;5.97;2.53;;;;;;;1.86;85.32;98902.41;4989194;28;20121;-79
2024/01/18 09:44:46;;;;;;;;;;;;;;;1.89;85.70;98899.84;5008347;28;20030;-78
2024/01/18 09:47:14;;;;;;;1.60;1.50;;;;;;;1.93;85.17;98897.28;4992969;28;19924;-78
2024/01/18 09:49:42;;;;;;;2.42;2.22;;;;;;;1.93;85.52;98905.25;4974656;28;20038;-78
2024/01/18 09:52:08;;;;;;;4.53;2.72;;;;;;;2.00;85.63;98916.81;5009111;28;20037;-78
2024/01/18 09:54:34;;;;;;;2.67;2.42;;;;;;;2.12;85.29;98913.31;5000230;28;20044;-78
2024/01/18 09:57:01;;;;;;;2.85;1.73;;;;;;;2.15;85.13;98924.00;5005450;28;20121;-78
2024/01/18 09:59:28;;;;;;;6.90;2.47;;;;;;;2.22;85.32;98918.13;4988643;28;20141;-78
2024/01/18 10:01:55;;;;;;;2.97;1.92;;;;;;;2.28;85.34;98922.06;4993011;28;20034;-78
2024/01/18 10:04:21;;;;;;;1.80;1.70;;;;;;;2.36;85.19;98929.84;4974810;28;20467;-77
2024/01/18 10:06:46;;;;;;;4.18;2.58;;;;;;;2.46;85.10;98926.66;4989375;28;20088;-78
2024/01/18 10:09:15;;;;;;;5.97;2.17;;;;;;;2.54;85.08;98933.69;5004141;28;20073;-78
2024/01/18 10:11:44;;;;;;;2.22;2.03;;;;;;;2.64;85.25;98935.06;4983440;28;20044;-79
2024/01/18 10:14:09;;;;;;;1.35;1.35;;;;;;;2.69;85.00;98940.13;5006112;28;20030;-79
2024/01/18 10:16:37;;;;;;;1.58;1.48;;;;;;;2.76;85.21;98953.56;5007493;28;20470;-79
2024/01/18 10:19:05;;;;;;;1.75;1.50;;;;;;;2.76;84.53;98948.25;4989778;28;20034;-79
2024/01/18 10:21:33;;;;;;;3.25;2.15;;;;;;;2.88;84.54;98950.81;4987805;28;20065;-79
2024/01/18 10:24:00;;;;;;;4.05;2.88;;;;;;;2.90;84.52;98953.13;5009356;28;20030;-79
2024/01/18 10:26:33;;;;;;;5.50;3.28;;;;;;;2.97;85.04;98945.28;4976021;28;20130;-79
2024/01/18 10:28:59;;;;;;;1.13;1.13;;;;;;;2.97;85.04;98962.03;4990962;28;20096;-80
2024/01/18 10:31:25;;;;;;;4.38;1.77;;;;;;;2.88;85.60;98958.78;5010151;28;20033;-79
2024/01/18 10:33:51;;;;;;;2.70;1.83;;;;;;;2.97;84.99;98962.03;4983864;28;20117;-80
2024/01/18 10:36:17;;;;;;;3.58;3.28;;;;;;;3.08;84.84;98973.66;4988782;28;20093;-79
2024/01/18 10:38:43;;;;;;;3.15;1.42;;;;;;;3.03;85.04;98973.94;5005665;28;20030;-79
2024/01/18 10:41:10;;;;;;;2.65;1.52;;;;;;;3.07;84.93;98977.44;5006961;28;20578;-79
2024/01/18 10:43:36;;;;;;;4.35;1.92;;;;;;;3.06;85.05;98986.53;4994359;28;20490;-80
2024/01/18 10:46:03;;;;;;;3.35;2.20;;;;;;;3.07;85.33;98990.75;4988836;28;20096;-80
2024/01/18 10:48:29;;;;;;;1.52;1.42;;;;;;;3.08;85.15;98989.59;4973838;28;20485;-79
2024/01/18 10:50:56;;;;;;;2.88;2.40;;;;;;;3.16;85.24;98996.63;4991463;28;20034;-79
2024/01/18 10:53:26;;;;;;;1.90;1.80;;;;;;;3.07;85.37;98997.94;4991022;28;20218;-79
2024/01/18 10:55:52;;;;;;;2.35;1.77;;;;;;;3.01;85.33;98997.44;4990434;28;20049;-79
2024/01/18 10:58:18;;;;;;;3.58;1.98;;;;;;;3.13;85.01;99004.53;4973754;28;20458;-80
2024/01/18 11:00:47;;;;;;;2.20;2.00;;;;;;;3.24;85.08;98998.34;4983139;28;20045;-79
2024/01/18 11:03:14;;;;;;;1.30;1.20;;;;;;;3.12;84.98;99001.09;4984148;28;20026;-79
2024/01/18 11:05:43;;;;;;;2.35;1.88;;;;;;;3.15;85.29;99005.75;4986530;28;20497;-79
2024/01/18 11:08:13;;;;;;;1.65;1.58;;;;;;;3.15;85.90;99008.41;4985667;28;20919;-79
2024/01/18 11:10:44;;;;;;;2.20;1.60;;;;;;;3.09;85.31;99007.13;5005575;28;20038;-79
2024/01/18 11:13:11;;;;;;;1.60;1.50;;;;;;;3.06;85.90;99015.75;4988076;28;20087;-79
2024/01/18 11:15:41;;;;;;;2.33;1.77;;;;;;;3.06;85.81;99015.00;4989896;28;20112;-79
2024/01/18 11:18:11;;;;;;;5.00;1.95;;;;;;;3.15;86.25;99016.38;5003617;28;20376;-79
2024/01/18 11:21:00;;;;;;;3.90;1.10;;;;;;;3.12;86.34;99010.94;5005951;28;20050;-79
2024/01/18 11:23:27;;;;;;;1.73;1.58;;;;;;;3.10;86.98;99013.97;4989201;28;20049;-79
2024/01/18 11:25:53;;;;;;;3.58;2.63;;;;;;;3.04;86.85;99018.00;4970693;28;20055;-79
2024/01/18 11:28:23;;;;;;;2.88;1.80;;;;;;;3.18;86.85;99015.66;5005551;28;20030;-80
2024/01/18 11:30:48;;;;;;;1.63;1.52;;;;;;;3.19;86.58;99027.88;5004733;28;20128;-80
2024/01/18 11:33:14;;;;;;;2.47;2.08;;;;;;;3.21;86.79;99025.63;5009677;28;20113;-79
2024/01/18 11:35:41;;;;;;;1.50;1.40;;;;;;;3.25;86.84;99026.44;4985171;28;20038;-79
2024/01/18 11:38:32;;;;;;;3.38;2.90;;;;;;;3.30;87.00;99026.19;4973588;28;20022;-80
2024/01/18 11:41:18;;;;;;;1.77;1.48;;;;;;;3.38;86.88;99027.13;4968424;28;21193;-80
2024/01/18 11:43:55;;;;;;;1.45;1.35;;;;;;;3.37;87.05;99030.88;4969959;28;20042;-79
2024/01/18 11:46:41;;;;;;;2.75;1.17;;;;;;;3.40;86.95;99032.88;4979158;28;20038;-79
2024/01/18 11:49:07;;;;;;;1.75;0.88;;;;;;;3.41;86.84;99027.19;4954827;28;20042;-79
2024/01/18 11:51:35;;;;;;;2.72;1.75;;;;;;;3.50;87.11;99035.75;4983628;28;20022;-80
2024/01/18 11:54:01;;;;;;;0.85;0.73;;;;;;;3.52;87.14;99041.50;4967167;28;20034;-79
2024/01/18 11:56:30;;;;;;;1.85;1.60;;;;;;;3.58;86.86;99037.44;4993316;28;20052;-79
2024/01/18 11:58:58;;;;;;;0.85;0.85;;;;;;;3.53;86.98;99042.28;4984857;28;20027;-79
2024/01/18 12:01:24;;;;;;;1.00;1.00;;;;;;;3.52;87.84;99041.50;5012524;28;20040;-79
2024/01/18 12:03:49;;;;;;;0.63;0.63;;;;;;;3.55;87.57;99054.13;4984807;28;20022;-79
2024/01/18 12:06:16;;;;;;;4.25;0.88;;;;;;;3.43;88.59;99053.44;4970797;28;20026;-79
2024/01/18 12:08:44;;;;;;;2.78;1.75;;;;;;;3.58;87.77;99050.75;4971327;28;20037;-79
2024/01/18 12:11:09;;;;;;;0.47;0.47;;;;;;;3.50;87.57;99056.28;4998682;28;20129;-79
2024/01/18 12:13:38;;;;;;;2.97;1.75;;;;;;;3.55;87.98;99048.81;4983696;28;20116;-78
2024/01/18 12:16:05;;;;;;;3.60;1.48;;;;;;;3.63;87.40;99060.38;4970191;28;20030;-78
2024/01/18 12:18:43;;;;;;;1.33;1.02;;;;;;;3.74;87.56;99061.34;4981974;28;20105;-79
2024/01/18 12:21:09;;;;;;;3.35;1.70;;;;;;;3.85;86.99;99059.69;4950298;28;20049;-79
2024/01/18 12:23:35;;;;;;;1.98;1.17;;;;;;;3.84;86.86;99065.34;4960619;28;20536;-78
2024/01/18 12:26:02;;;;;;;1.48;0.82;;;;;;;3.77;87.61;99065.22;4959505;28;20038;-78
2024/01/18 12:28:28;;;;;;;0.98;0.93;;;;;;;3.80;87.49;99070.59;4973266;28;20136;-78
2024/01/18 12:31:00;;;;;;;1.15;0.60;;;;;;;3.85;86.86;99067.69;4991032;28;20104;-78
2024/01/18 12:33:30;;;;;;;0.95;0.75;;;;;;;3.90;87.45;99071.94;4992460;28;20125;-78
2024/01/18 12:35:56;;;;;;;0.43;0.43;;;;;;;3.93;86.77;99080.00;4973327;28;20069;-78
2024/01/18 12:38:22;;;;;;;1.02;0.93;;;;;;;3.93;87.12;99088.00;4989822;28;20034;-79
2024/01/18 12:40:50;;;;;;;0.40;0.40;;;;;;;4.01;86.94;99087.03;4970422;28;20050;-78
2024/01/18 12:43:16;;;;;;;0.82;0.80;;;;;;;4.02;86.82;99085.13;4990119;28;20040;-78
2024/01/18 12:45:42;;;;;;;0.77;0.77;;;;;;;4.19;86.28;99096.16;4988081;28;20521;-78
2024/01/18 12:48:09;;;;;;;1.40;1.20;;;;;;;4.26;85.38;99090.16;4955446;28;20038;-78
2024/01/18 12:50:36;;;;;;;1.35;0.93;;;;;;;4.22;85.93;99086.69;4991876;28;20117;-78
2024/01/18 12:53:03;;;;;;;1.08;0.75;;;;;;;4.17;84.94;99105.59;4974328;28;20076;-78
2024/01/18 12:55:30;;;;;;;0.35;0.28;;;;;;;4.23;85.42;99090.88;4996692;28;20038;-78
2024/01/18 12:57:58;;;;;;;0.50;0.50;;;;;;;4.34;85.05;99105.16;4968646;28;20044;-79
2024/01/18 13:00:23;;;;;;;0.40;0.40;;;;;;;4.33;84.23;99109.75;4996614;28;20576;-78
2024/01/18 13:02:52;;;;;;;0.55;0.55;;;;;;;4.20;84.34;99116.31;4973825;28;20069;-78
2024/01/18 13:05:18;;;;;;;0.40;0.40;;;;;;;4.22;83.78;99116.75;4987137;28;20034;-78
2024/01/18 13:07:44;;;;;;;0.47;0.32;;;;;;;3.94;84.43;99126.03;4988938;28;20026;-79
2024/01/18 13:10:13;;;;;;;0.60;0.60;;;;;;;3.99;83.89;99133.78;4971360;28;20506;-78
2024/01/18 13:12:39;;;;;;;0.90;0.85;;;;;;;4.00;83.52;99128.09;4969512;28;20512;-78
2024/01/18 13:15:05;;;;;;;0.28;0.28;;;;;;;3.86;84.00;99143.75;4971947;28;20042;-79
2024/01/18 13:17:31;;;;;;;0.30;0.30;;;;;;;3.94;83.56;99145.47;4953398;28;20136;-78
2024/01/18 13:19:56;;;;;;;0.57;0.57;;;;;;;3.86;83.47;99153.63;4986377;28;20206;-78
2024/01/18 13:22:22;;;;;;;0.60;0.60;;;;;;;3.90;83.28;99155.25;4991849;28;20026;-78
2024/01/18 13:24:47;;;;;;;0.70;0.28;;;;;;;3.98;81.73;99158.84;4985865;28;20798;-78
2024/01/18 13:27:13;;;;;;;0.50;0.45;;;;;;;3.89;82.18;99160.94;4989568;28;20034;-78
2024/01/18 13:29:38;;;;;;;0.60;0.60;;;;;;;4.05;80.25;99173.06;4972256;28;20129;-78
2024/01/18 13:32:04;;;;;;;0.55;0.55;;;;;;;4.19;78.43;99173.38;4973171;28;20069;-78
2024/01/18 19:03:47;;;;;;;0.68;0.68;;;;;;;2.21;87.51;99731.63;5024486;22;20608;-85
2024/01/18 19:06:13;;;;;;;0.30;0.30;;;;;;;2.16;87.60;99737.91;4981186;28;20478;-83
2024/01/18 19:08:40;;;;;;;0.50;0.50;;;;;;;2.12;87.17;99737.00;4953306;28;20032;-82
2024/01/18 19:11:05;;;;;;;0.77;0.77;;;;;;;2.05;87.95;99738.59;4995503;28;20049;-82
2024/01/18 19:13:31;;;;;;;0.43;0.43;;;;;;;2.12;87.53;99744.19;4965513;28;20073;-83
2024/01/18 19:15:58;;;;;;;0.50;0.50;;;;;;;1.94;87.77;99748.78;4972433;28;20038;-81
2024/01/18 19:18:43;;;;;;;1.33;1.05;;;;;;;2.03;88.04;99762.03;4964501;28;20625;-87
2024/01/18 19:21:51;;;;;;;1.65;0.77;;;;;;;1.94;88.65;99778.00;4954036;28;20634;-82
2024/01/18 19:24:17;;;;;;;0.43;0.43;;;;;;;1.88;89.15;99778.50;4939019;28;20494;-82
2024/01/18 19:26:43;;;;;;;1.27;0.45;;;;;;;2.16;88.12;99774.31;4980238;28;20044;-83
2024/01/18 19:29:09;;;;;;;1.02;1.00;;;;;;;2.17;87.44;99776.63;4984697;28;20966;-83
2024/01/18 19:31:34;;;;;;;0.30;0.30;;;;;;;2.17;87.41;99783.84;4949662;28;20126;-82
2024/01/18 19:34:03;;;;;;;3.35;0.95;;;;;;;2.27;86.94;99791.41;4959335;28;20029;-84
2024/01/18 19:36:29;;;;;;;0.45;0.45;;;;;;;2.11;86.98;99803.69;4947633;28;20164;-82
2024/01/18 19:38:55;;;;;;;0.32;0.32;;;;;;;2.11;87.56;99799.16;4965837;28;20045;-84
2024/01/18 19:41:22;;;;;;;0.93;0.93;;;;;;;2.12;87.32;99800.72;4976458;28;20041;-83
2024/01/18 19:43:47;;;;;;;1.02;1.00;;;;;;;2.15;87.04;99807.28;4994637;28;20053;-83
2024/01/18 19:46:13;;;;;;;0.60;0.60;;;;;;;2.08;86.81;99814.94;4995582;28;20045;-84
2024/01/18 19:48:40;;;;;;;0.70;0.70;;;;;;;2.06;86.92;99806.50;4966556;28;20952;-83
2024/01/18 19:51:09;;;;;;;1.25;1.17;;;;;;;2.10;86.85;99812.75;4925520;28;21070;-82
2024/01/18 19:53:34;;;;;;;0.80;0.80;;;;;;;2.01;87.05;99807.50;4968027;28;20058;-84
2024/01/18 19:56:00;;;;;;;2.28;1.70;;;;;;;2.08;86.53;99818.38;4961974;28;20158;-84
2024/01/18 19:58:26;;;;;;;0.95;0.93;;;;;;;2.10;86.56;99812.75;4937622;28;20041;-83
2024/01/18 20:00:52;;;;;;;0.88;0.77;;;;;;;2.10;86.25;99818.84;4950993;28;20034;-84
2024/01/18 20:03:20;;;;;;;0.98;0.85;;;;;;;2.00;86.33;99815.75;4956894;28;20656;-82
2024/01/18 20:05:45;;;;;;;5.20;1.08;;;;;;;1.93;87.17;99813.59;4958948;28;20044;-83
2024/01/18 20:08:11;;;;;;;2.55;1.23;;;;;;;1.97;86.75;99817.19;4957749;28;20042;-82
2024/01/18 20:10:37;;;;;;;1.17;0.93;;;;;;;1.92;86.74;99812.03;4980164;28;20041;-82
2024/01/18 20:13:03;;;;;;;3.03;1.60;;;;;;;1.94;86.88;99817.03;4972152;28;20096;-83
2024/01/18 20:15:45;;;;;;;0.65;0.65;;;;;;;1.94;86.92;99812.50;4985210;28;20129;-82
2024/01/18 20:18:11;;;;;;;1.30;1.20;;;;;;;2.03;86.56;99820.44;4968712;28;20040;-83
2024/01/18 20:20:39;;;;;;;1.25;1.13;;;;;;;1.96;86.85;99823.56;4963883;28;20070;-83
2024/01/18 20:23:07;;;;;;;0.68;0.68;;;;;;;1.89;86.71;99830.47;4939246;28;20144;-83
2024/01/18 20:25:33;;;;;;;1.38;0.73;;;;;;;1.98;86.75;99836.53;4967891;28;20080;-83
2024/01/18 20:27:58;;;;;;;0.82;0.82;;;;;;;2.01;86.68;99841.22;4946863;28;20042;-83
2024/01/18 20:30:24;;;;;;;2.55;1.05;;;;;;;1.84;87.06;99857.94;4973911;28;20029;-83
2024/01/18 20:32:50;;;;;;;1.40;1.30;;;;;;;1.70;87.60;99860.78;4982950;28;20034;-83
2024/01/18 20:35:15;;;;;;;0.68;0.68;;;;;;;1.67;87.84;99864.09;4995746;28;20117;-82
2024/01/18 20:37:41;;;;;;;3.53;2.03;;;;;;;1.66;88.14;99867.84;5001582;28;20044;-81
2024/01/18 20:40:07;;;;;;;5.60;1.77;;;;;;;1.68;87.78;99872.84;4975180;28;20060;-83
2024/01/18 20:42:35;;;;;;;1.20;1.08;;;;;;;1.70;87.52;99868.75;4979000;28;20112;-85
2024/01/18 20:45:01;;;;;;;0.75;0.75;;;;;;;1.68;87.82;99876.25;4994254;28;20037;-82
2024/01/18 20:47:27;;;;;;;2.53;1.35;;;;;;;1.67;87.54;99873.91;4969518;28;20584;-85
2024/01/18 20:49:52;;;;;;;5.95;1.55;;;;;;;1.63;87.73;99878.28;4978675;28;20034;-83
2024/01/18 20:52:18;;;;;;;2.97;1.52;;;;;;;1.68;87.69;99888.75;4985084;28;20033;-84
2024/01/18 20:54:43;;;;;;;1.25;1.15;;;;;;;1.68;87.43;99891.41;4976263;28;20045;-84
2024/01/18 20:57:10;;;;;;;0.52;0.52;;;;;;;1.70;87.72;99894.53;4999464;28;20034;-84
2024/01/18 20:59:38;;;;;;;1.23;1.13;;;;;;;1.81;87.47;99888.56;4965676;28;20031;-84
2024/01/18 21:02:04;;;;;;;1.08;1.08;;;;;;;1.80;87.39;99891.53;4988485;28;20030;-84
2024/01/18 21:04:30;;;;;;;0.90;0.90;;;;;;;1.82;87.36;99903.38;4978848;28;20088;-84
2024/01/18 21:06:55;;;;;;;1.05;1.02;;;;;;;1.90;87.65;99901.81;4964735;28;20414;-84
2024/01/18 21:09:23;;;;;;;4.07;1.85;;;;;;;1.95;87.77;99911.50;4949644;28;20046;-80
2024/01/18 21:11:50;;;;;;;7.88;1.77;;;;;;;1.94;87.60;99910.69;4983283;28;20033;-83
2024/01/18 21:14:15;;;;;;;2.75;0.80;;;;;;;1.96;88.05;99908.50;4960767;28;20034;-82
2024/01/18 21:16:41;;;;;;;1.60;1.50;;;;;;;2.00;87.83;99924.56;4976806;28;20887;-82
2024/01/18 21:19:07;;;;;;;0.68;0.68;;;;;;;1.81;88.37;99928.38;4995056;28;20509;-83
2024/01/18 21:21:34;;;;;;;1.60;1.50;;;;;;;1.74;88.54;99948.53;4979084;28;20048;-84
2024/01/18 21:24:02;;;;;;;0.75;0.63;;;;;;;1.67;89.75;99954.28;4962255;28;21568;-82
2024/01/18 21:26:28;;;;;;;1.42;1.05;;;;;;;1.72;89.89;99972.69;5000515;28;20085;-83
2024/01/18 21:28:54;;;;;;;0.82;0.82;;;;;;;1.82;90.18;99975.03;4997731;28;20101;-84
2024/01/18 21:31:19;;;;;;;0.75;0.65;;;;;;;1.90;89.97;99983.31;4993581;28;20775;-82
2024/01/18 21:33:45;;;;;;;1.25;0.95;;;;;;;2.00;89.72;99982.97;4978657;28;20038;-83
2024/01/18 21:36:11;;;;;;;1.25;1.23;;;;;;;2.01;89.50;99968.63;4981351;28;20068;-82
2024/01/18 21:38:37;;;;;;;0.45;0.45;;;;;;;2.01;89.69;99973.94;4977944;28;20030;-83
2024/01/18 21:41:04;;;;;;;0.88;0.73;;;;;;;2.02;89.19;99978.13;4975600;28;20065;-84
2024/01/18 21:43:30;;;;;;;0.73;0.73;;;;;;;1.91;89.06;99992.84;4995541;28;20034;-85
2024/01/18 21:45:55;;;;;;;0.28;0.28;;;;;;;1.99;89.39;99986.75;4982860;28;20056;-81
2024/01/18 21:48:22;;;;;;;0.75;0.70;;;;;;;2.08;88.92;99990.16;4974623;28;20042;-82
2024/01/18 21:50:47;;;;;;;0.63;0.63;;;;;;;2.07;88.86;99994.69;4996011;28;21343;-82
2024/01/18 21:53:13;;;;;;;0.35;0.35;;;;;;;2.07;89.44;99988.59;4977822;28;20041;-83
2024/01/18 21:55:39;;;;;;;0.57;0.57;;;;;;;2.12;89.44;99991.09;4995182;28;20029;-84
2024/01/18 21:58:05;;;;;;;0.52;0.52;;;;;;;2.12;89.28;99989.22;4975729;28;20038;-81
2024/01/18 22:00:31;;;;;;;0.60;0.60;;;;;;;2.14;89.32;99989.69;4979030;28;20042;-82
2024/01/18 22:02:56;;;;;;;1.25;1.15;;;;;;;2.12;89.66;99996.41;4981500;28;20663;-83
2024/01/18 22:05:23;;;;;;;0.38;0.38;;;;;;;2.29;88.94;100012.31;4992202;28;20025;-83
2024/01/18 22:07:49;;;;;;;0.50;0.50;;;;;;;2.22;89.15;100007.47;4980642;28;20504;-84
2024/01/18 22:10:14;;;;;;;2.05;1.00;;;;;;;2.25;88.71;100014.03;5000112;28;20098;-84
2024/01/18 22:12:40;;;;;;;1.45;0.63;;;;;;;2.14;89.39;100031.38;4993333;28;20879;-83
2024/01/18 22:15:06;;;;;;;0.45;0.45;;;;;;;1.92;89.79;100026.25;4992041;28;20037;-83
2024/01/18 22:17:32;;;;;;;0.85;0.85;;;;;;;1.97;90.97;100031.41;4979732;28;20607;-83
2024/01/18 22:19:58;;;;;;;4.50;1.52;;;;;;;1.93;90.66;100027.81;4979018;28;20034;-83
2024/01/18 22:22:23;;;;;;;0.68;0.68;;;;;;;2.18;89.79;100042.94;4978903;28;20033;-83
2024/01/18 22:24:49;;;;;;;0.98;0.73;;;;;;;2.12;90.13;100046.84;4978838;28;20034;-84
2024/01/18 22:27:14;;;;;;;1.58;0.73;;;;;;;2.13;89.87;100046.53;4976325;28;20030;-84
2024/01/18 22:29:42;;;;;;;0.32;0.30;;;;;;;2.26;90.87;100045.59;4997169;28;21634;-82
2024/01/18 22:32:08;;;;;;;0.75;0.75;;;;;;;2.32;91.62;100036.34;4980332;28;20041;-84
2024/01/18 22:34:33;;;;;;;1.10;0.77;;;;;;;2.51;91.29;100026.19;4977177;28;20041;-84
2024/01/18 22:36:59;;;;;;;0.30;0.30;;;;;;;2.48;91.71;100023.34;4973747;28;20112;-84
2024/01/18 22:39:25;;;;;;;0.40;0.40;;;;;;;2.52;91.92;100011.00;4961302;28;20041;-83
2024/01/18 22:41:51;;;;;;;0.52;0.50;;;;;;;2.66;91.26;99980.50;4978363;28;20037;-84
2024/01/18 22:44:16;;;;;;;1.58;1.48;;;;;;;2.67;90.53;99974.06;4995703;28;20029;-82
2024/01/18 22:46:43;;;;;;;0.40;0.40;;;;;;;2.59;91.66;99988.16;4976755;28;20044;-84
2024/01/18 22:49:08;;;;;;;1.10;0.98;;;;;;;2.64;91.15;99984.56;4998021;28;20113;-84
2024/01/18 22:51:34;;;;;;;1.23;1.00;;;;;;;2.67;91.66;99981.28;4995345;28;20093;-83
2024/01/18 22:54:00;;;;;;;1.08;0.70;;;;;;;2.75;91.09;99986.53;4998292;28;20042;-83
2024/01/18 22:56:26;;;;;;;2.05;1.08;;;;;;;2.80;90.81;99984.81;4962616;28;20045;-84
2024/01/18 22:58:52;;;;;;;0.55;0.55;;;;;;;2.70;91.01;99997.34;4977272;28;20055;-84
2024/01/18 23:01:17;;;;;;;0.77;0.63;;;;;;;2.83;90.19;99994.81;5000866;28;20427;-83
2024/01/18 23:03:43;;;;;;;0.82;0.82;;;;;;;2.83;90.10;99989.50;4996772;28;20022;-84
2024/01/18 23:06:09;;;;;;;2.05;1.70;;;;;;;2.79;90.08;100004.53;4992194;28;20025;-82
2024/01/18 23:08:34;;;;;;;0.85;0.85;;;;;;;2.56;91.17;100027.88;4989161;28;20037;-84
2024/01/18 23:11:00;;;;;;;1.67;1.05;;;;;;;2.62;91.30;100037.22;4993659;28;20030;-84
2024/01/18 23:13:26;;;;;;;0.40;0.40;;;;;;;2.57;91.57;100024.13;4989650;28;20042;-83
2024/01/18 23:15:52;;;;;;;1.40;0.45;;;;;;;2.63;91.95;100028.94;4992090;28;20049;-83
2024/01/18 23:18:18;;;;;;;0.63;0.63;;;;;;;2.63;92.10;100028.94;4976701;28;20037;-82
2024/01/18 23:20:43;;;;;;;1.63;1.17;;;;;;;2.65;92.25;100005.47;4988077;28;20032;-83
2024/01/18 23:23:09;;;;;;;0.63;0.63;;;;;;;2.61;92.18;99995.81;4989473;28;20030;-84
2024/01/18 23:25:34;;;;;;;1.02;0.82;;;;;;;2.37;94.12;99990.25;4971612;28;20033;-84
2024/01/18 23:27:59;;;;;;;1.17;1.10;;;;;;;2.44;94.19;99999.28;4985071;28;20030;-83
2024/01/18 23:30:25;;;;;;;1.02;1.00;;;;;;;2.59;93.71;100003.34;5007740;28;20419;-83
2024/01/18 23:32:50;;;;;;;0.70;0.70;;;;;;;2.64;92.12;100005.81;4986824;28;20414;-84
2024/01/18 23:35:16;;;;;;;0.85;0.85;;;;;;;2.51;92.97;100009.44;4988830;28;20045;-84
2024/01/18 23:37:41;;;;;;;0.95;0.95;;;;;;;2.45;93.48;100016.03;4985917;28;20066;-84
2024/01/18 23:40:07;;;;;;;0.52;0.52;;;;;;;2.42;93.49;100021.97;4989466;28;20025;-83
2024/01/18 23:42:32;;;;;;;0.60;0.60;;;;;;;2.47;93.56;99990.72;5005147;28;20040;-84
2024/01/18 23:44:58;;;;;;;1.05;0.88;;;;;;;2.55;93.10;99981.16;4983507;28;20447;-82
2024/01/18 23:47:24;;;;;;;0.85;0.70;;;;;;;2.44;93.18;99978.03;4984873;28;20057;-83
2024/01/18 23:49:50;;;;;;;0.63;0.63;;;;;;;2.36;93.38;99983.41;4975788;28;20032;-84
2024/01/18 23:52:15;;;;;;;0.80;0.80;;;;;;;2.34;93.23;99988.25;5007567;28;20518;-84
2024/01/18 23:54:42;;;;;;;1.05;1.00;;;;;;;2.34;92.40;99989.00;4997466;28;21120;-81
2024/01/18 23:57:07;;;;;;;0.68;0.68;;;;;;;2.27;92.60;99988.72;4970916;28;20034;-84
2024/01/18 23:59:33;;;;;;;1.15;1.05;;;;;;;2.34;92.42;99993.56;4979037;28;20026;-84
